createdAt,value
2022-12-11T00:01:26.264Z,0.77
2022-12-11T00:04:12.403Z,0.90
2022-12-11T00:06:58.744Z,1.67
2022-12-11T00:09:44.607Z,0.68
2022-12-11T00:12:31.499Z,2.15
2022-12-11T00:15:17.544Z,0.95
2022-12-11T00:18:03.552Z,0.55
2022-12-11T00:20:49.574Z,1.20
2022-12-11T00:23:36.176Z,1.13
2022-12-11T00:26:22.537Z,1.67
2022-12-11T00:29:11.169Z,1.75
2022-12-11T00:31:57.691Z,0.75
2022-12-11T00:34:43.664Z,2.97
2022-12-11T00:37:29.731Z,2.05
2022-12-11T00:40:15.466Z,1.77
2022-12-11T00:43:01.491Z,1.27
2022-12-11T00:45:48.200Z,3.95
2022-12-11T00:48:34.247Z,1.67
2022-12-11T00:51:20.339Z,1.30
2022-12-11T00:54:06.812Z,1.15
2022-12-11T00:56:52.985Z,2.08
2022-12-11T00:59:39.395Z,0.73
2022-12-11T01:02:25.484Z,2.75
2022-12-11T01:05:11.857Z,2.22
2022-12-11T01:07:58.294Z,3.17
2022-12-11T01:10:44.186Z,2.03
2022-12-11T01:13:30.211Z,1.30
2022-12-11T01:16:16.441Z,1.55
2022-12-11T01:19:03.388Z,1.77
2022-12-11T01:21:49.512Z,1.02
2022-12-11T01:24:35.371Z,1.75
2022-12-11T01:27:21.302Z,2.67
2022-12-11T01:30:08.592Z,2.78
2022-12-11T01:32:54.514Z,3.63
2022-12-11T01:35:40.717Z,1.17
2022-12-11T01:38:26.626Z,2.78
2022-12-11T01:41:12.915Z,2.08
2022-12-11T01:44:06.586Z,2.25
2022-12-11T01:46:53.221Z,1.05
2022-12-11T01:49:40.476Z,1.73
2022-12-11T01:52:26.520Z,1.80
2022-12-11T01:55:12.932Z,3.05
2022-12-11T01:57:58.967Z,2.10
2022-12-11T02:00:44.906Z,3.05
2022-12-11T02:03:30.935Z,3.75
2022-12-11T02:06:37.695Z,3.72
2022-12-11T02:09:28.912Z,2.28
2022-12-11T02:12:39.942Z,2.92
2022-12-11T02:15:56.009Z,1.05
2022-12-11T02:18:53.394Z,1.45
2022-12-11T02:21:44.137Z,1.50
2022-12-11T02:24:54.862Z,1.02
2022-12-11T02:28:13.507Z,2.40
2022-12-11T02:31:05.805Z,2.20
2022-12-11T02:34:10.330Z,2.03
2022-12-11T02:37:00.956Z,2.85
2022-12-11T02:39:48.914Z,4.15
2022-12-11T02:42:36.814Z,3.28
2022-12-11T02:45:22.963Z,1.58
2022-12-11T02:48:11.352Z,3.30
2022-12-11T02:50:58.430Z,3.03
2022-12-11T02:53:45.879Z,2.92
2022-12-11T02:56:42.368Z,2.28
2022-12-11T02:59:36.676Z,0.65
2022-12-11T03:02:22.811Z,1.52
2022-12-11T03:05:10.854Z,1.00
2022-12-11T03:07:56.896Z,1.58
2022-12-11T03:10:43.032Z,1.42
2022-12-11T03:13:29.199Z,0.70
2022-12-11T03:16:55.281Z,1.10
2022-12-11T03:20:14.152Z,1.17
2022-12-11T03:23:13.204Z,1.75
2022-12-11T03:26:09.168Z,2.22
2022-12-11T03:29:01.196Z,3.35
2022-12-11T03:31:59.739Z,2.20
2022-12-11T03:34:58.318Z,2.40
2022-12-11T03:37:45.232Z,2.08
2022-12-11T03:40:33.351Z,2.08
2022-12-11T03:43:21.563Z,1.95
2022-12-11T03:46:09.225Z,1.80
2022-12-11T03:48:57.326Z,3.25
2022-12-11T03:51:45.238Z,4.82
2022-12-11T03:54:31.762Z,3.67
2022-12-11T03:57:20.776Z,4.82
2022-12-11T04:00:13.061Z,5.47
2022-12-11T04:03:14.700Z,6.40
2022-12-11T04:06:00.774Z,4.45
2022-12-11T04:08:46.644Z,2.47
2022-12-11T04:11:35.169Z,1.58
2022-12-11T04:14:39.935Z,2.50
2022-12-11T04:17:44.425Z,1.63
2022-12-11T04:20:48.974Z,3.78
2022-12-11T04:23:53.472Z,1.88
2022-12-11T04:26:39.603Z,2.75
2022-12-11T04:29:25.552Z,4.03
2022-12-11T04:32:11.313Z,4.05
2022-12-11T04:34:57.078Z,3.45
2022-12-11T04:37:43.066Z,12.25
2022-12-11T04:40:29.014Z,39.90
2022-12-11T04:43:15.127Z,20.92
2022-12-11T04:46:15.826Z,12.10
2022-12-11T04:49:01.779Z,10.55
2022-12-11T04:51:47.989Z,6.93
2022-12-11T04:54:34.015Z,5.32
2022-12-11T04:57:21.555Z,5.43
2022-12-11T05:00:10.977Z,4.80
2022-12-11T05:02:57.083Z,5.35
2022-12-11T05:05:51.424Z,3.10
2022-12-11T05:08:38.942Z,1.73
2022-12-11T05:11:25.156Z,2.92
2022-12-11T05:14:11.007Z,4.80
2022-12-11T05:16:56.849Z,2.90
2022-12-11T05:19:42.666Z,2.55
2022-12-11T05:22:30.585Z,2.60
2022-12-11T05:25:16.571Z,3.13
2022-12-11T05:28:02.763Z,2.33
2022-12-11T05:30:48.813Z,4.95
2022-12-11T05:33:35.332Z,3.55
2022-12-11T05:36:39.391Z,5.65
2022-12-11T05:39:25.513Z,3.38
2022-12-11T05:42:11.624Z,3.35
2022-12-11T05:44:57.493Z,3.30
2022-12-11T05:47:43.510Z,3.45
2022-12-11T05:50:29.346Z,3.58
2022-12-11T05:53:15.333Z,4.93
2022-12-11T05:56:06.721Z,5.28
2022-12-11T05:58:53.085Z,4.05
2022-12-11T06:01:41.649Z,5.05
2022-12-11T06:04:27.921Z,7.18
2022-12-11T06:07:14.508Z,2.90
2022-12-11T06:10:00.572Z,4.68
2022-12-11T06:12:46.466Z,4.22
2022-12-11T06:15:32.724Z,6.88
2022-12-11T06:18:19.029Z,4.93
2022-12-11T06:21:19.851Z,5.55
2022-12-11T06:24:06.355Z,5.03
2022-12-11T06:26:52.231Z,3.75
2022-12-11T06:29:38.140Z,4.30
2022-12-11T06:32:23.967Z,5.85
2022-12-11T06:35:10.273Z,6.80
2022-12-11T06:37:56.627Z,6.47
2022-12-11T06:40:42.903Z,5.07
2022-12-11T06:43:28.832Z,4.63
2022-12-11T06:46:19.745Z,5.97
2022-12-11T06:49:05.744Z,13.57
2022-12-11T06:51:51.921Z,8.65
2022-12-11T06:54:37.849Z,7.95
2022-12-11T06:57:23.808Z,7.75
2022-12-11T07:00:10.570Z,11.38
2022-12-11T07:02:56.777Z,6.47
2022-12-11T07:05:42.744Z,7.95
2022-12-11T07:08:29.654Z,9.77
2022-12-11T07:11:17.144Z,9.18
2022-12-11T07:14:03.401Z,6.60
2022-12-11T07:16:49.719Z,6.30
2022-12-11T07:19:35.859Z,8.48
2022-12-11T07:22:22.192Z,5.78
2022-12-11T07:25:09.067Z,10.27
2022-12-11T07:27:55.180Z,8.75
2022-12-11T07:30:41.128Z,4.72
2022-12-11T07:33:27.009Z,8.23
2022-12-11T07:36:14.779Z,4.32
2022-12-11T07:39:01.319Z,7.32
2022-12-11T07:41:47.189Z,5.88
2022-12-11T07:44:34.937Z,5.30
2022-12-11T07:47:20.824Z,5.75
2022-12-11T07:50:06.865Z,3.67
2022-12-11T07:52:53.048Z,3.60
2022-12-11T07:55:39.072Z,3.42
2022-12-11T07:58:24.734Z,3.20
2022-12-11T08:01:18.946Z,3.97
2022-12-11T08:04:07.745Z,5.05
2022-12-11T08:06:53.690Z,3.08
2022-12-11T08:09:39.678Z,2.88
2022-12-11T08:12:26.179Z,4.30
2022-12-11T08:15:12.840Z,4.55
2022-12-11T08:17:59.010Z,3.25
2022-12-11T08:20:44.926Z,4.72
2022-12-11T08:23:31.056Z,3.72
2022-12-11T08:26:23.220Z,2.95
2022-12-11T08:29:10.251Z,0.70
2022-12-11T08:31:56.113Z,1.35
2022-12-11T08:34:42.147Z,1.35
2022-12-11T08:37:28.026Z,0.60
2022-12-11T08:40:14.368Z,1.83
2022-12-11T08:43:00.370Z,0.57
2022-12-11T08:45:47.028Z,2.38
2022-12-11T08:48:34.347Z,1.20
2022-12-11T08:51:22.990Z,1.15
2022-12-11T08:54:09.549Z,1.38
2022-12-11T08:56:58.150Z,8.30
2022-12-11T08:59:44.667Z,1.05
2022-12-11T09:02:30.630Z,2.50
2022-12-11T09:05:17.194Z,1.27
2022-12-11T09:08:03.463Z,0.98
2022-12-11T09:10:49.539Z,0.77
2022-12-11T09:13:36.162Z,3.13
2022-12-11T09:16:24.420Z,1.23
2022-12-11T09:19:16.469Z,3.30
2022-12-11T09:22:02.820Z,1.25
2022-12-11T09:24:48.795Z,0.93
2022-12-11T09:27:34.668Z,1.63
2022-12-11T09:30:20.581Z,0.70
2022-12-11T09:33:06.457Z,2.83
2022-12-11T09:36:02.792Z,1.80
2022-12-11T09:38:49.161Z,2.70
2022-12-11T09:41:38.000Z,2.30
2022-12-11T09:44:27.560Z,3.42
2022-12-11T09:47:34.116Z,1.30
2022-12-11T09:50:23.990Z,2.67
2022-12-11T09:53:17.193Z,2.05
2022-12-11T09:56:09.576Z,2.35
2022-12-11T09:58:58.291Z,1.95
2022-12-11T10:01:58.534Z,2.10
2022-12-11T10:05:26.560Z,3.90
2022-12-11T10:08:31.271Z,1.38
2022-12-11T10:11:40.346Z,3.63
2022-12-11T10:14:47.804Z,1.65
2022-12-11T10:17:35.163Z,2.65
2022-12-11T10:20:40.516Z,2.80
2022-12-11T10:23:35.769Z,1.75
2022-12-11T10:26:23.054Z,2.33
2022-12-11T10:29:14.717Z,1.80
2022-12-11T10:32:00.815Z,0.83
2022-12-11T10:34:49.741Z,1.00
2022-12-11T10:37:35.809Z,1.40
2022-12-11T10:40:22.291Z,3.25
2022-12-11T10:43:08.327Z,3.65
2022-12-11T10:45:54.968Z,1.55
2022-12-11T10:48:49.942Z,2.03
2022-12-11T10:51:37.934Z,1.50
2022-12-11T10:54:33.786Z,1.73
2022-12-11T10:57:28.350Z,1.98
2022-12-11T11:00:39.867Z,1.60
2022-12-11T11:03:28.009Z,1.52
2022-12-11T11:06:20.036Z,2.15
2022-12-11T11:09:35.069Z,2.13
2022-12-11T11:12:27.138Z,1.45
2022-12-11T11:15:16.607Z,1.07
2022-12-11T11:18:23.858Z,2.28
2022-12-11T11:21:17.398Z,3.58
2022-12-11T11:24:03.987Z,2.03
2022-12-11T11:27:12.213Z,1.17
2022-12-11T11:29:59.012Z,1.00
2022-12-11T11:32:44.943Z,4.28
2022-12-11T11:35:32.223Z,1.92
2022-12-11T11:38:25.386Z,2.80
2022-12-11T11:41:24.099Z,1.30
2022-12-11T11:44:12.761Z,1.17
2022-12-11T11:47:19.044Z,0.88
2022-12-11T11:50:27.232Z,1.10
2022-12-11T11:53:24.998Z,1.30
2022-12-11T11:56:31.680Z,2.28
2022-12-11T11:59:23.547Z,1.75
2022-12-11T12:02:19.096Z,2.03
2022-12-11T12:05:05.883Z,3.42
2022-12-11T12:08:01.631Z,2.38
2022-12-11T12:11:03.023Z,2.25
2022-12-11T12:14:51.070Z,2.80
2022-12-11T12:17:38.124Z,3.83
2022-12-11T12:20:39.128Z,3.70
2022-12-11T12:23:37.458Z,2.25
2022-12-11T12:26:29.969Z,4.30
2022-12-11T12:29:21.031Z,3.72
2022-12-11T12:32:20.929Z,4.15
2022-12-11T12:35:28.163Z,5.22
2022-12-11T12:38:24.880Z,2.70
2022-12-11T12:41:29.493Z,5.85
2022-12-11T12:44:18.298Z,3.50
2022-12-11T12:47:14.002Z,4.22
2022-12-11T12:50:01.724Z,2.80
2022-12-11T12:52:48.332Z,2.90
2022-12-11T12:55:35.192Z,9.95
2022-12-11T12:58:28.324Z,5.13
2022-12-11T13:01:21.116Z,4.57
2022-12-11T13:04:20.756Z,2.63
2022-12-11T13:07:18.242Z,5.68
2022-12-11T13:10:23.291Z,3.15
2022-12-11T13:13:38.863Z,2.80
2022-12-11T13:16:26.926Z,6.15
2022-12-11T13:19:28.083Z,5.18
2022-12-11T13:22:17.370Z,4.07
2022-12-11T13:25:27.836Z,4.63
2022-12-11T13:28:51.243Z,4.00
2022-12-11T13:31:40.136Z,2.08
2022-12-11T13:34:28.708Z,2.58
2022-12-11T13:37:24.193Z,2.83
2022-12-11T13:40:21.418Z,3.67
2022-12-11T13:43:19.429Z,4.38
2022-12-11T13:46:09.731Z,4.35
2022-12-11T13:49:01.120Z,3.88
2022-12-11T13:51:57.107Z,3.70
2022-12-11T13:54:48.302Z,5.40
2022-12-11T13:57:34.203Z,3.90
2022-12-11T14:00:23.446Z,3.47
2022-12-11T14:03:10.749Z,2.75
2022-12-11T14:05:59.072Z,1.60
2022-12-11T14:08:48.589Z,3.30
2022-12-11T14:11:39.235Z,4.75
2022-12-11T14:14:43.980Z,7.90
2022-12-11T14:17:32.284Z,8.00
2022-12-11T14:20:27.959Z,5.53
2022-12-11T14:23:18.421Z,3.17
2022-12-11T14:26:16.898Z,2.97
2022-12-11T14:29:03.049Z,3.33
2022-12-11T14:31:49.544Z,2.88
2022-12-11T14:34:41.287Z,2.83
2022-12-11T14:37:28.563Z,2.40
2022-12-11T14:40:19.131Z,2.97
2022-12-11T14:43:12.431Z,3.40
2022-12-11T14:46:02.935Z,6.03
2022-12-11T14:49:00.418Z,2.85
2022-12-11T14:51:47.187Z,2.45
2022-12-11T14:54:39.763Z,2.75
2022-12-11T14:57:27.664Z,3.67
2022-12-11T15:00:22.855Z,2.80
2022-12-11T15:03:12.506Z,6.25
2022-12-11T15:05:59.108Z,3.58
2022-12-11T15:08:45.250Z,2.85
2022-12-11T15:11:32.221Z,2.15
2022-12-11T15:14:20.229Z,3.35
2022-12-11T15:17:12.672Z,3.08
2022-12-11T15:20:11.727Z,2.55
2022-12-11T15:22:59.140Z,3.83
2022-12-11T15:25:51.539Z,3.80
2022-12-11T15:28:38.785Z,5.97
2022-12-11T15:31:30.857Z,4.22
2022-12-11T15:34:23.789Z,3.10
2022-12-11T15:37:20.035Z,3.15
2022-12-11T15:40:06.673Z,2.58
2022-12-11T15:42:52.886Z,4.05
2022-12-11T15:45:38.989Z,14.90
2022-12-11T15:48:24.663Z,15.65
2022-12-11T15:51:11.074Z,14.48
2022-12-11T15:53:57.269Z,15.15
2022-12-11T15:56:43.170Z,14.85
2022-12-11T15:59:29.232Z,16.08
2022-12-11T16:02:15.735Z,13.63
2022-12-11T16:05:01.863Z,12.93
2022-12-11T16:07:48.738Z,9.43
2022-12-11T16:10:34.686Z,11.43
2022-12-11T16:13:20.862Z,15.10
2022-12-11T16:16:07.087Z,14.52
2022-12-11T16:18:53.157Z,13.10
2022-12-11T16:21:39.057Z,17.05
2022-12-11T16:24:25.125Z,16.00
2022-12-11T16:27:11.526Z,15.05
2022-12-11T16:29:57.556Z,15.23
2022-12-11T16:32:43.994Z,14.63
2022-12-11T16:35:30.627Z,19.67
2022-12-11T16:38:16.827Z,15.75
2022-12-11T16:41:02.781Z,33.60
2022-12-11T16:43:48.805Z,17.70
2022-12-11T16:46:35.184Z,17.13
2022-12-11T16:49:21.891Z,18.63
2022-12-11T16:52:07.782Z,15.65
2022-12-11T16:54:53.936Z,16.02
2022-12-11T16:57:40.610Z,22.85
2022-12-11T17:00:26.522Z,18.30
2022-12-11T17:03:13.179Z,18.40
2022-12-11T17:05:59.348Z,13.75
2022-12-11T17:08:45.991Z,16.50
2022-12-11T17:11:32.198Z,20.05
2022-12-11T17:14:18.048Z,15.00
2022-12-11T17:17:04.122Z,12.65
2022-12-11T17:19:49.983Z,12.82
2022-12-11T17:22:36.214Z,13.23
2022-12-11T17:25:22.560Z,10.90
2022-12-11T17:28:08.892Z,12.23
2022-12-11T17:30:55.459Z,16.40
2022-12-11T17:33:41.571Z,14.77
2022-12-11T17:36:27.874Z,19.85
2022-12-11T17:39:14.212Z,12.90
2022-12-11T17:42:00.413Z,11.77
2022-12-11T17:44:46.248Z,10.55
2022-12-11T17:47:32.353Z,12.18
2022-12-11T17:50:18.589Z,13.73
2022-12-11T17:53:04.854Z,9.02
2022-12-11T17:55:52.228Z,12.38
2022-12-11T17:58:38.440Z,12.25
2022-12-11T18:01:24.423Z,11.55
2022-12-11T18:04:10.569Z,11.02
2022-12-11T18:06:56.279Z,10.05
2022-12-11T18:09:42.480Z,13.50
2022-12-11T18:12:30.989Z,17.08
2022-12-11T18:15:19.411Z,16.42
2022-12-11T18:18:06.368Z,18.30
2022-12-11T18:20:52.617Z,14.50
2022-12-11T18:23:38.814Z,18.55
2022-12-11T18:26:25.369Z,17.98
2022-12-11T18:29:11.482Z,15.65
2022-12-11T18:31:57.754Z,13.63
2022-12-11T18:34:43.914Z,11.30
2022-12-11T18:37:30.233Z,9.88
2022-12-11T18:40:16.965Z,12.82
2022-12-11T18:43:03.357Z,10.73
2022-12-11T18:45:49.705Z,10.93
2022-12-11T18:48:36.399Z,12.13
2022-12-11T18:51:24.082Z,12.52
2022-12-11T18:54:10.017Z,10.60
2022-12-11T18:56:56.059Z,12.75
2022-12-11T18:59:42.389Z,15.25
2022-12-11T19:02:28.860Z,13.93
2022-12-11T19:05:15.235Z,14.63
2022-12-11T19:08:02.255Z,13.15
2022-12-11T19:10:48.377Z,10.77
2022-12-11T19:13:35.795Z,14.15
2022-12-11T19:16:25.220Z,13.90
2022-12-11T19:19:17.940Z,12.10
2022-12-11T19:22:04.225Z,15.07
2022-12-11T19:24:50.336Z,16.25
2022-12-11T19:27:36.280Z,16.17
2022-12-11T19:30:22.978Z,16.33
2022-12-11T19:33:09.105Z,14.65
2022-12-11T19:36:07.355Z,16.85
2022-12-11T19:38:59.307Z,19.90
2022-12-11T19:41:47.722Z,22.55
2022-12-11T19:44:33.560Z,24.85
2022-12-11T19:47:19.583Z,18.30
2022-12-11T19:50:05.930Z,17.50
2022-12-11T19:52:51.946Z,17.10
2022-12-11T19:55:38.149Z,20.75
2022-12-11T19:58:24.019Z,18.30
2022-12-11T20:01:11.143Z,18.58
2022-12-11T20:03:59.800Z,18.67
2022-12-11T20:06:46.631Z,20.08
2022-12-11T20:09:33.741Z,20.70
2022-12-11T20:12:19.828Z,20.88
2022-12-11T20:15:06.296Z,22.38
2022-12-11T20:17:59.887Z,21.63
2022-12-11T20:20:47.783Z,22.13
2022-12-11T20:23:35.197Z,21.55
2022-12-11T20:26:23.555Z,16.10
2022-12-11T20:29:09.629Z,17.10
2022-12-11T20:31:55.856Z,16.15
2022-12-11T20:34:41.910Z,16.20
2022-12-11T20:37:29.147Z,15.50
2022-12-11T20:40:15.602Z,12.68
2022-12-11T20:43:02.035Z,14.98
2022-12-11T20:45:49.280Z,15.05
2022-12-11T20:48:36.086Z,14.13
2022-12-11T20:51:26.170Z,21.55
2022-12-11T20:54:12.644Z,15.60
2022-12-11T20:56:58.797Z,17.05
2022-12-11T20:59:45.411Z,15.90
2022-12-11T21:02:31.872Z,14.43
2022-12-11T21:05:18.099Z,13.27
2022-12-11T21:08:04.245Z,12.27
2022-12-11T21:10:50.160Z,16.52
2022-12-11T21:13:37.618Z,15.60
2022-12-11T21:16:24.295Z,19.50
2022-12-11T21:19:17.066Z,18.60
2022-12-11T21:22:04.015Z,18.60
2022-12-11T21:24:49.767Z,19.13
2022-12-11T21:27:36.262Z,17.63
2022-12-11T21:30:22.064Z,18.05
2022-12-11T21:33:08.353Z,16.92
2022-12-11T21:35:58.370Z,17.27
2022-12-11T21:38:45.302Z,19.98
2022-12-11T21:41:31.251Z,25.48
2022-12-11T21:47:24.701Z,24.45
2022-12-11T21:50:10.825Z,23.63
2022-12-11T21:52:56.986Z,23.40
2022-12-11T21:55:42.904Z,29.60
2022-12-11T21:58:28.725Z,29.05
2022-12-11T22:01:18.856Z,28.17
2022-12-11T22:04:05.600Z,33.30
2022-12-11T22:06:52.235Z,30.08
2022-12-11T22:09:38.283Z,25.70
2022-12-11T22:12:27.812Z,32.95
2022-12-11T22:15:13.987Z,33.45
2022-12-11T22:18:00.442Z,36.67
2022-12-11T22:20:46.624Z,38.78
2022-12-11T22:23:32.698Z,44.67
2022-12-11T22:26:23.947Z,38.92
2022-12-11T22:29:09.914Z,40.38
2022-12-11T22:31:56.175Z,42.78
2022-12-11T22:34:42.088Z,44.50
2022-12-11T22:37:29.556Z,52.90
2022-12-11T22:40:15.536Z,42.33
2022-12-11T22:43:01.769Z,41.58
2022-12-11T22:45:47.657Z,43.47
2022-12-11T22:48:33.746Z,48.90
2022-12-11T22:51:20.240Z,47.33
2022-12-11T22:54:06.411Z,45.40
2022-12-11T22:56:52.893Z,47.80
2022-12-11T22:59:38.841Z,45.88
2022-12-11T23:02:24.740Z,49.08
2022-12-11T23:05:11.911Z,39.40
2022-12-11T23:07:58.228Z,38.90
2022-12-11T23:10:44.595Z,30.25
2022-12-11T23:13:30.631Z,28.50
2022-12-11T23:16:17.124Z,24.45
2022-12-11T23:19:04.017Z,21.75
2022-12-11T23:21:50.244Z,18.88
2022-12-11T23:24:36.195Z,21.58
2022-12-11T23:27:22.092Z,22.38
2022-12-11T23:30:09.069Z,21.65
2022-12-11T23:32:55.261Z,22.92
2022-12-11T23:35:41.447Z,22.90
2022-12-11T23:38:27.512Z,29.27
2022-12-11T23:41:14.596Z,28.25
2022-12-11T23:44:00.576Z,24.90
2022-12-11T23:46:46.457Z,21.83
2022-12-11T23:49:32.428Z,18.50
2022-12-11T23:52:18.483Z,17.88
2022-12-11T23:55:04.645Z,14.48
2022-12-11T23:57:50.808Z,15.98
